sensor_id;sensor_type;location;lat;lon;timestamp;temperature;humidity
15241;DHT22;7723;52.170;9.978;2022-12-18T00:01:16;-6.50;99.90
15241;DHT22;7723;52.170;9.978;2022-12-18T00:03:44;-6.50;99.90
15241;DHT22;7723;52.170;9.978;2022-12-18T00:06:12;-6.60;99.90
15241;DHT22;7723;52.170;9.978;2022-12-18T00:08:39;-6.60;99.90
15241;DHT22;7723;52.170;9.978;2022-12-18T00:11:07;-6.70;99.90
15241;DHT22;7723;52.170;9.978;2022-12-18T00:13:35;-6.80;99.90
15241;DHT22;7723;52.170;9.978;2022-12-18T00:16:05;-6.90;99.90
15241;DHT22;7723;52.170;9.978;2022-12-18T00:18:32;-6.90;99.90
15241;DHT22;7723;52.170;9.978;2022-12-18T00:21:00;-7.00;99.90
15241;DHT22;7723;52.170;9.978;2022-12-18T00:23:29;-7.00;99.90
15241;DHT22;7723;52.170;9.978;2022-12-18T00:25:59;-7.10;99.90
15241;DHT22;7723;52.170;9.978;2022-12-18T00:28:26;-7.10;99.90
15241;DHT22;7723;52.170;9.978;2022-12-18T00:31:00;-7.10;99.90
15241;DHT22;7723;52.170;9.978;2022-12-18T00:33:29;-7.10;99.90
15241;DHT22;7723;52.170;9.978;2022-12-18T00:36:00;-7.10;99.90
15241;DHT22;7723;52.170;9.978;2022-12-18T00:38:27;-7.10;99.90
15241;DHT22;7723;52.170;9.978;2022-12-18T00:40:54;-7.10;99.90
15241;DHT22;7723;52.170;9.978;2022-12-18T00:43:21;-7.10;99.90
15241;DHT22;7723;52.170;9.978;2022-12-18T00:45:47;-7.20;99.90
15241;DHT22;7723;52.170;9.978;2022-12-18T00:48:15;-7.20;99.90
15241;DHT22;7723;52.170;9.978;2022-12-18T00:50:43;-7.30;99.90
15241;DHT22;7723;52.170;9.978;2022-12-18T00:53:11;-7.30;99.90
15241;DHT22;7723;52.170;9.978;2022-12-18T00:55:39;-7.40;99.90
15241;DHT22;7723;52.170;9.978;2022-12-18T00:58:06;-7.40;99.90
15241;DHT22;7723;52.170;9.978;2022-12-18T01:00:33;-7.40;99.90
15241;DHT22;7723;52.170;9.978;2022-12-18T01:03:00;-7.40;99.90
15241;DHT22;7723;52.170;9.978;2022-12-18T01:05:27;-7.30;99.90
15241;DHT22;7723;52.170;9.978;2022-12-18T01:07:56;-7.40;99.90
15241;DHT22;7723;52.170;9.978;2022-12-18T01:10:24;-7.50;99.90
15241;DHT22;7723;52.170;9.978;2022-12-18T01:12:52;-7.50;99.90
15241;DHT22;7723;52.170;9.978;2022-12-18T01:15:19;-7.50;99.90
15241;DHT22;7723;52.170;9.978;2022-12-18T01:17:46;-7.50;99.90
15241;DHT22;7723;52.170;9.978;2022-12-18T01:20:13;-7.50;99.90
15241;DHT22;7723;52.170;9.978;2022-12-18T01:22:41;-7.50;99.90
15241;DHT22;7723;52.170;9.978;2022-12-18T01:25:10;-7.50;99.90
15241;DHT22;7723;52.170;9.978;2022-12-18T01:27:37;-7.50;99.90
15241;DHT22;7723;52.170;9.978;2022-12-18T01:30:05;-7.50;99.90
15241;DHT22;7723;52.170;9.978;2022-12-18T01:32:32;-7.60;99.90
15241;DHT22;7723;52.170;9.978;2022-12-18T01:34:59;-7.60;99.90
15241;DHT22;7723;52.170;9.978;2022-12-18T01:37:27;-7.60;99.90
15241;DHT22;7723;52.170;9.978;2022-12-18T01:39:54;-7.60;99.90
15241;DHT22;7723;52.170;9.978;2022-12-18T01:42:22;-7.80;99.90
15241;DHT22;7723;52.170;9.978;2022-12-18T01:44:56;-7.80;99.90
15241;DHT22;7723;52.170;9.978;2022-12-18T01:47:26;-7.70;99.90
15241;DHT22;7723;52.170;9.978;2022-12-18T01:49:55;-7.70;99.90
15241;DHT22;7723;52.170;9.978;2022-12-18T01:52:25;-7.60;99.90
15241;DHT22;7723;52.170;9.978;2022-12-18T01:54:53;-7.60;99.90
15241;DHT22;7723;52.170;9.978;2022-12-18T01:57:23;-7.80;99.90
15241;DHT22;7723;52.170;9.978;2022-12-18T01:59:54;-7.80;99.90
15241;DHT22;7723;52.170;9.978;2022-12-18T02:02:22;-7.80;99.90
15241;DHT22;7723;52.170;9.978;2022-12-18T02:04:49;-7.90;99.90
15241;DHT22;7723;52.170;9.978;2022-12-18T02:07:21;-7.90;99.90
15241;DHT22;7723;52.170;9.978;2022-12-18T02:09:53;-7.90;99.90
15241;DHT22;7723;52.170;9.978;2022-12-18T02:12:30;-7.90;99.90
15241;DHT22;7723;52.170;9.978;2022-12-18T02:15:06;-7.90;99.90
15241;DHT22;7723;52.170;9.978;2022-12-18T02:17:38;-7.90;99.90
15241;DHT22;7723;52.170;9.978;2022-12-18T02:20:12;-7.90;99.90
15241;DHT22;7723;52.170;9.978;2022-12-18T02:22:48;-8.00;99.90
15241;DHT22;7723;52.170;9.978;2022-12-18T02:25:28;-7.90;99.90
15241;DHT22;7723;52.170;9.978;2022-12-18T02:28:05;-8.00;99.90
15241;DHT22;7723;52.170;9.978;2022-12-18T02:30:35;-7.90;99.90
15241;DHT22;7723;52.170;9.978;2022-12-18T02:33:05;-7.90;99.90
15241;DHT22;7723;52.170;9.978;2022-12-18T02:35:34;-7.90;99.90
15241;DHT22;7723;52.170;9.978;2022-12-18T02:38:03;-7.90;99.90
15241;DHT22;7723;52.170;9.978;2022-12-18T02:40:31;-7.90;99.90
15241;DHT22;7723;52.170;9.978;2022-12-18T02:43:07;-7.80;99.90
15241;DHT22;7723;52.170;9.978;2022-12-18T02:45:34;-7.80;99.90
15241;DHT22;7723;52.170;9.978;2022-12-18T02:48:02;-7.90;99.90
15241;DHT22;7723;52.170;9.978;2022-12-18T02:50:34;-7.80;99.90
15241;DHT22;7723;52.170;9.978;2022-12-18T02:53:09;-7.90;99.90
15241;DHT22;7723;52.170;9.978;2022-12-18T02:55:48;-7.80;99.90
15241;DHT22;7723;52.170;9.978;2022-12-18T02:58:25;-7.50;99.90
15241;DHT22;7723;52.170;9.978;2022-12-18T03:00:59;-7.80;99.90
15241;DHT22;7723;52.170;9.978;2022-12-18T03:03:31;-7.70;99.90
15241;DHT22;7723;52.170;9.978;2022-12-18T03:06:05;-7.90;99.90
15241;DHT22;7723;52.170;9.978;2022-12-18T03:08:38;-7.70;99.90
15241;DHT22;7723;52.170;9.978;2022-12-18T03:11:09;-7.80;99.90
15241;DHT22;7723;52.170;9.978;2022-12-18T03:13:43;-7.90;99.90
15241;DHT22;7723;52.170;9.978;2022-12-18T03:16:15;-7.80;99.90
15241;DHT22;7723;52.170;9.978;2022-12-18T03:18:47;-7.80;99.90
15241;DHT22;7723;52.170;9.978;2022-12-18T03:21:19;-7.80;99.90
15241;DHT22;7723;52.170;9.978;2022-12-18T03:23:49;-7.80;99.90
15241;DHT22;7723;52.170;9.978;2022-12-18T03:26:19;-7.60;99.90
15241;DHT22;7723;52.170;9.978;2022-12-18T03:28:51;-7.60;99.90
15241;DHT22;7723;52.170;9.978;2022-12-18T03:31:22;-7.50;99.90
15241;DHT22;7723;52.170;9.978;2022-12-18T03:33:52;-7.40;99.90
15241;DHT22;7723;52.170;9.978;2022-12-18T03:36:20;-7.40;99.90
15241;DHT22;7723;52.170;9.978;2022-12-18T03:38:47;-7.20;99.90
15241;DHT22;7723;52.170;9.978;2022-12-18T03:41:19;-7.10;99.90
15241;DHT22;7723;52.170;9.978;2022-12-18T03:43:57;-7.10;99.90
15241;DHT22;7723;52.170;9.978;2022-12-18T03:46:33;-7.00;99.90
15241;DHT22;7723;52.170;9.978;2022-12-18T03:49:06;-7.10;99.90
15241;DHT22;7723;52.170;9.978;2022-12-18T03:51:40;-6.90;99.90
15241;DHT22;7723;52.170;9.978;2022-12-18T03:54:10;-7.00;99.90
15241;DHT22;7723;52.170;9.978;2022-12-18T03:56:42;-7.10;99.90
15241;DHT22;7723;52.170;9.978;2022-12-18T03:59:13;-7.20;99.90
15241;DHT22;7723;52.170;9.978;2022-12-18T04:01:46;-7.20;99.90
15241;DHT22;7723;52.170;9.978;2022-12-18T04:04:14;-7.10;99.90
15241;DHT22;7723;52.170;9.978;2022-12-18T04:06:44;-6.90;99.90
15241;DHT22;7723;52.170;9.978;2022-12-18T04:09:12;-6.80;99.90
15241;DHT22;7723;52.170;9.978;2022-12-18T04:11:40;-6.90;99.90
15241;DHT22;7723;52.170;9.978;2022-12-18T04:14:07;-6.80;99.90
15241;DHT22;7723;52.170;9.978;2022-12-18T04:16:36;-6.80;99.90
15241;DHT22;7723;52.170;9.978;2022-12-18T04:19:05;-7.00;99.90
15241;DHT22;7723;52.170;9.978;2022-12-18T04:21:32;-7.10;99.90
15241;DHT22;7723;52.170;9.978;2022-12-18T04:23:59;-7.20;99.90
15241;DHT22;7723;52.170;9.978;2022-12-18T04:26:26;-7.30;99.90
15241;DHT22;7723;52.170;9.978;2022-12-18T04:28:53;-7.30;99.90
15241;DHT22;7723;52.170;9.978;2022-12-18T04:31:20;-7.30;99.90
15241;DHT22;7723;52.170;9.978;2022-12-18T04:33:49;-7.50;99.90
15241;DHT22;7723;52.170;9.978;2022-12-18T04:36:16;-7.40;99.90
15241;DHT22;7723;52.170;9.978;2022-12-18T04:38:43;-7.50;99.90
15241;DHT22;7723;52.170;9.978;2022-12-18T04:41:13;-7.60;99.90
15241;DHT22;7723;52.170;9.978;2022-12-18T04:43:41;-7.70;99.90
15241;DHT22;7723;52.170;9.978;2022-12-18T04:46:08;-7.80;99.90
15241;DHT22;7723;52.170;9.978;2022-12-18T04:48:35;-7.90;99.90
15241;DHT22;7723;52.170;9.978;2022-12-18T04:51:05;-7.70;99.90
15241;DHT22;7723;52.170;9.978;2022-12-18T04:53:32;-7.90;99.90
15241;DHT22;7723;52.170;9.978;2022-12-18T04:56:04;-7.90;99.90
15241;DHT22;7723;52.170;9.978;2022-12-18T04:58:32;-7.90;99.90
15241;DHT22;7723;52.170;9.978;2022-12-18T05:00:59;-8.20;99.90
15241;DHT22;7723;52.170;9.978;2022-12-18T05:03:26;-8.00;99.90
15241;DHT22;7723;52.170;9.978;2022-12-18T05:05:53;-8.00;99.90
15241;DHT22;7723;52.170;9.978;2022-12-18T05:08:22;-8.10;99.90
15241;DHT22;7723;52.170;9.978;2022-12-18T05:10:49;-8.10;99.90
15241;DHT22;7723;52.170;9.978;2022-12-18T05:13:16;-8.00;99.90
15241;DHT22;7723;52.170;9.978;2022-12-18T05:15:51;-8.00;99.90
15241;DHT22;7723;52.170;9.978;2022-12-18T05:18:18;-7.90;99.90
15241;DHT22;7723;52.170;9.978;2022-12-18T05:20:45;-7.90;99.90
15241;DHT22;7723;52.170;9.978;2022-12-18T05:23:12;-7.80;99.90
15241;DHT22;7723;52.170;9.978;2022-12-18T05:25:41;-7.80;99.90
15241;DHT22;7723;52.170;9.978;2022-12-18T05:28:08;-7.50;99.90
15241;DHT22;7723;52.170;9.978;2022-12-18T05:30:35;-7.60;99.90
15241;DHT22;7723;52.170;9.978;2022-12-18T05:33:03;-7.70;99.90
15241;DHT22;7723;52.170;9.978;2022-12-18T05:35:30;-7.70;99.90
15241;DHT22;7723;52.170;9.978;2022-12-18T05:37:57;-7.80;99.90
15241;DHT22;7723;52.170;9.978;2022-12-18T05:40:24;-8.00;99.90
15241;DHT22;7723;52.170;9.978;2022-12-18T05:42:52;-7.80;99.90
15241;DHT22;7723;52.170;9.978;2022-12-18T05:45:19;-8.00;99.90
15241;DHT22;7723;52.170;9.978;2022-12-18T05:47:47;-7.90;99.90
15241;DHT22;7723;52.170;9.978;2022-12-18T05:50:14;-8.00;99.90
15241;DHT22;7723;52.170;9.978;2022-12-18T05:52:41;-7.90;99.90
15241;DHT22;7723;52.170;9.978;2022-12-18T05:55:08;-8.00;99.90
15241;DHT22;7723;52.170;9.978;2022-12-18T05:57:36;-8.00;99.90
15241;DHT22;7723;52.170;9.978;2022-12-18T06:00:05;-8.10;99.90
15241;DHT22;7723;52.170;9.978;2022-12-18T06:02:32;-8.20;99.90
15241;DHT22;7723;52.170;9.978;2022-12-18T06:04:59;-8.30;99.90
15241;DHT22;7723;52.170;9.978;2022-12-18T06:07:26;-8.30;99.90
15241;DHT22;7723;52.170;9.978;2022-12-18T06:09:53;-8.30;99.90
15241;DHT22;7723;52.170;9.978;2022-12-18T06:12:20;-8.30;99.90
15241;DHT22;7723;52.170;9.978;2022-12-18T06:14:47;-8.20;99.90
15241;DHT22;7723;52.170;9.978;2022-12-18T06:17:16;-8.20;99.90
15241;DHT22;7723;52.170;9.978;2022-12-18T06:19:43;-8.20;99.90
15241;DHT22;7723;52.170;9.978;2022-12-18T06:22:10;-8.20;99.90
15241;DHT22;7723;52.170;9.978;2022-12-18T06:24:37;-8.20;99.90
15241;DHT22;7723;52.170;9.978;2022-12-18T06:27:04;-8.20;99.90
15241;DHT22;7723;52.170;9.978;2022-12-18T06:29:31;-8.30;99.90
15241;DHT22;7723;52.170;9.978;2022-12-18T06:31:58;-8.40;99.90
15241;DHT22;7723;52.170;9.978;2022-12-18T06:34:27;-8.30;99.90
15241;DHT22;7723;52.170;9.978;2022-12-18T06:36:55;-8.00;99.90
15241;DHT22;7723;52.170;9.978;2022-12-18T06:39:22;-7.70;99.90
15241;DHT22;7723;52.170;9.978;2022-12-18T06:41:50;-7.70;99.90
15241;DHT22;7723;52.170;9.978;2022-12-18T06:44:17;-7.60;99.90
15241;DHT22;7723;52.170;9.978;2022-12-18T06:46:44;-7.60;99.90
15241;DHT22;7723;52.170;9.978;2022-12-18T06:49:12;-7.30;99.90
15241;DHT22;7723;52.170;9.978;2022-12-18T06:51:44;-7.00;99.90
15241;DHT22;7723;52.170;9.978;2022-12-18T06:54:11;-7.00;99.90
15241;DHT22;7723;52.170;9.978;2022-12-18T06:56:39;-6.90;99.90
15241;DHT22;7723;52.170;9.978;2022-12-18T06:59:07;-6.90;99.90
15241;DHT22;7723;52.170;9.978;2022-12-18T07:01:34;-6.80;99.90
15241;DHT22;7723;52.170;9.978;2022-12-18T07:04:02;-6.50;99.90
15241;DHT22;7723;52.170;9.978;2022-12-18T07:06:29;-6.30;99.90
15241;DHT22;7723;52.170;9.978;2022-12-18T07:08:57;-6.10;99.90
15241;DHT22;7723;52.170;9.978;2022-12-18T07:11:24;-5.90;99.90
15241;DHT22;7723;52.170;9.978;2022-12-18T07:13:52;-5.90;99.90
15241;DHT22;7723;52.170;9.978;2022-12-18T07:16:21;-5.70;99.90
15241;DHT22;7723;52.170;9.978;2022-12-18T07:18:48;-5.70;99.90
15241;DHT22;7723;52.170;9.978;2022-12-18T07:21:17;-5.60;99.90
15241;DHT22;7723;52.170;9.978;2022-12-18T07:23:44;-5.70;99.90
15241;DHT22;7723;52.170;9.978;2022-12-18T07:26:16;-5.70;99.90
15241;DHT22;7723;52.170;9.978;2022-12-18T07:28:43;-5.60;99.90
15241;DHT22;7723;52.170;9.978;2022-12-18T07:31:12;-5.40;99.90
15241;DHT22;7723;52.170;9.978;2022-12-18T07:33:40;-5.60;99.90
15241;DHT22;7723;52.170;9.978;2022-12-18T07:36:08;-5.60;99.90
15241;DHT22;7723;52.170;9.978;2022-12-18T07:38:36;-5.70;99.90
15241;DHT22;7723;52.170;9.978;2022-12-18T07:41:05;-5.80;99.90
15241;DHT22;7723;52.170;9.978;2022-12-18T07:43:34;-5.60;99.90
15241;DHT22;7723;52.170;9.978;2022-12-18T07:46:01;-5.60;99.90
15241;DHT22;7723;52.170;9.978;2022-12-18T07:48:29;-5.40;99.90
15241;DHT22;7723;52.170;9.978;2022-12-18T07:50:59;-5.50;99.90
15241;DHT22;7723;52.170;9.978;2022-12-18T07:53:26;-5.40;99.90
15241;DHT22;7723;52.170;9.978;2022-12-18T07:55:55;-5.50;99.90
15241;DHT22;7723;52.170;9.978;2022-12-18T07:58:23;-5.50;99.90
15241;DHT22;7723;52.170;9.978;2022-12-18T08:00:52;-5.40;99.90
15241;DHT22;7723;52.170;9.978;2022-12-18T08:03:19;-5.00;99.90
15241;DHT22;7723;52.170;9.978;2022-12-18T08:05:49;-4.60;99.90
15241;DHT22;7723;52.170;9.978;2022-12-18T08:08:16;-4.30;99.90
15241;DHT22;7723;52.170;9.978;2022-12-18T08:10:43;-4.20;99.90
15241;DHT22;7723;52.170;9.978;2022-12-18T08:13:10;-4.10;99.90
15241;DHT22;7723;52.170;9.978;2022-12-18T08:15:37;-3.70;99.90
15241;DHT22;7723;52.170;9.978;2022-12-18T08:18:06;-3.30;99.90
15241;DHT22;7723;52.170;9.978;2022-12-18T08:20:33;-3.00;99.90
15241;DHT22;7723;52.170;9.978;2022-12-18T08:23:00;-2.80;94.90
15241;DHT22;7723;52.170;9.978;2022-12-18T08:25:27;-2.80;92.90
15241;DHT22;7723;52.170;9.978;2022-12-18T08:27:54;-2.70;93.00
15241;DHT22;7723;52.170;9.978;2022-12-18T08:30:22;-2.60;86.90
15241;DHT22;7723;52.170;9.978;2022-12-18T08:32:51;-2.40;73.20
15241;DHT22;7723;52.170;9.978;2022-12-18T08:35:19;-2.30;67.90
15241;DHT22;7723;52.170;9.978;2022-12-18T08:37:47;-2.00;66.70
15241;DHT22;7723;52.170;9.978;2022-12-18T08:40:14;-1.90;49.70
15241;DHT22;7723;52.170;9.978;2022-12-18T08:42:41;-1.80;40.10
15241;DHT22;7723;52.170;9.978;2022-12-18T08:45:22;-1.70;31.40
15241;DHT22;7723;52.170;9.978;2022-12-18T08:47:50;-1.70;24.00
15241;DHT22;7723;52.170;9.978;2022-12-18T08:50:18;-1.60;24.70
15241;DHT22;7723;52.170;9.978;2022-12-18T08:52:46;-1.20;19.30
15241;DHT22;7723;52.170;9.978;2022-12-18T08:55:13;-1.00;11.30
15241;DHT22;7723;52.170;9.978;2022-12-18T08:57:40;-0.90;3.60
15241;DHT22;7723;52.170;9.978;2022-12-18T09:00:08;-0.80;6.00
15241;DHT22;7723;52.170;9.978;2022-12-18T09:02:35;-0.70;1.00
15241;DHT22;7723;52.170;9.978;2022-12-18T09:05:03;-0.70;1.00
15241;DHT22;7723;52.170;9.978;2022-12-18T09:07:31;-0.70;1.00
15241;DHT22;7723;52.170;9.978;2022-12-18T09:09:58;-0.50;1.00
15241;DHT22;7723;52.170;9.978;2022-12-18T09:12:25;-0.20;1.00
15241;DHT22;7723;52.170;9.978;2022-12-18T09:14:52;-0.30;1.00
15241;DHT22;7723;52.170;9.978;2022-12-18T09:17:19;-0.20;1.00
15241;DHT22;7723;52.170;9.978;2022-12-18T09:19:46;-0.30;1.00
15241;DHT22;7723;52.170;9.978;2022-12-18T09:22:14;-0.40;1.00
15241;DHT22;7723;52.170;9.978;2022-12-18T09:24:42;-0.30;1.00
15241;DHT22;7723;52.170;9.978;2022-12-18T09:27:09;-0.10;1.00
15241;DHT22;7723;52.170;9.978;2022-12-18T09:29:36;0.00;1.00
15241;DHT22;7723;52.170;9.978;2022-12-18T09:32:04;-0.20;1.00
15241;DHT22;7723;52.170;9.978;2022-12-18T09:34:31;-0.20;1.00
15241;DHT22;7723;52.170;9.978;2022-12-18T09:36:58;-0.20;1.00
15241;DHT22;7723;52.170;9.978;2022-12-18T09:39:25;-0.20;1.00
15241;DHT22;7723;52.170;9.978;2022-12-18T09:41:55;-0.20;1.00
15241;DHT22;7723;52.170;9.978;2022-12-18T09:44:25;-0.20;1.00
15241;DHT22;7723;52.170;9.978;2022-12-18T09:47:02;-0.30;1.00
15241;DHT22;7723;52.170;9.978;2022-12-18T09:49:34;-0.30;1.00
15241;DHT22;7723;52.170;9.978;2022-12-18T09:52:08;-0.10;1.00
15241;DHT22;7723;52.170;9.978;2022-12-18T09:54:39;-0.10;1.00
15241;DHT22;7723;52.170;9.978;2022-12-18T09:57:12;0.00;1.00
15241;DHT22;7723;52.170;9.978;2022-12-18T09:59:41;-0.10;1.00
15241;DHT22;7723;52.170;9.978;2022-12-18T10:02:15;-0.10;1.00
15241;DHT22;7723;52.170;9.978;2022-12-18T10:04:43;-0.10;1.00
15241;DHT22;7723;52.170;9.978;2022-12-18T10:07:20;-0.20;1.00
15241;DHT22;7723;52.170;9.978;2022-12-18T10:09:55;-0.20;1.00
15241;DHT22;7723;52.170;9.978;2022-12-18T10:12:30;0.00;1.00
15241;DHT22;7723;52.170;9.978;2022-12-18T10:15:04;0.00;1.00
15241;DHT22;7723;52.170;9.978;2022-12-18T10:17:38;0.00;1.00
15241;DHT22;7723;52.170;9.978;2022-12-18T10:20:13;0.00;1.00
15241;DHT22;7723;52.170;9.978;2022-12-18T10:22:50;0.00;1.00
15241;DHT22;7723;52.170;9.978;2022-12-18T10:25:22;0.10;1.00
15241;DHT22;7723;52.170;9.978;2022-12-18T10:27:58;0.10;1.00
15241;DHT22;7723;52.170;9.978;2022-12-18T10:30:27;0.10;1.00
15241;DHT22;7723;52.170;9.978;2022-12-18T10:32:54;0.10;1.00
15241;DHT22;7723;52.170;9.978;2022-12-18T10:35:27;0.10;1.00
15241;DHT22;7723;52.170;9.978;2022-12-18T10:38:03;0.20;1.00
15241;DHT22;7723;52.170;9.978;2022-12-18T10:40:30;0.10;1.00
15241;DHT22;7723;52.170;9.978;2022-12-18T10:43:11;0.10;1.00
15241;DHT22;7723;52.170;9.978;2022-12-18T10:45:38;0.20;1.00
15241;DHT22;7723;52.170;9.978;2022-12-18T10:48:18;0.20;1.00
15241;DHT22;7723;52.170;9.978;2022-12-18T10:50:48;0.40;1.00
15241;DHT22;7723;52.170;9.978;2022-12-18T10:53:19;0.40;1.00
15241;DHT22;7723;52.170;9.978;2022-12-18T10:55:48;0.40;1.00
15241;DHT22;7723;52.170;9.978;2022-12-18T10:58:24;0.40;1.00
15241;DHT22;7723;52.170;9.978;2022-12-18T11:01:07;0.50;1.00
15241;DHT22;7723;52.170;9.978;2022-12-18T11:03:36;0.50;1.00
15241;DHT22;7723;52.170;9.978;2022-12-18T11:06:06;0.60;1.00
15241;DHT22;7723;52.170;9.978;2022-12-18T11:08:34;0.60;1.00
15241;DHT22;7723;52.170;9.978;2022-12-18T11:11:01;0.70;1.00
15241;DHT22;7723;52.170;9.978;2022-12-18T11:13:31;0.70;1.00
15241;DHT22;7723;52.170;9.978;2022-12-18T11:15:59;0.70;1.00
15241;DHT22;7723;52.170;9.978;2022-12-18T11:18:28;0.70;1.00
15241;DHT22;7723;52.170;9.978;2022-12-18T11:20:57;0.70;1.00
15241;DHT22;7723;52.170;9.978;2022-12-18T11:23:26;0.60;1.00
15241;DHT22;7723;52.170;9.978;2022-12-18T11:25:56;0.60;1.00
15241;DHT22;7723;52.170;9.978;2022-12-18T11:28:40;0.50;1.00
15241;DHT22;7723;52.170;9.978;2022-12-18T11:31:20;0.50;1.00
15241;DHT22;7723;52.170;9.978;2022-12-18T11:33:54;0.40;1.00
15241;DHT22;7723;52.170;9.978;2022-12-18T11:36:23;0.50;1.00
15241;DHT22;7723;52.170;9.978;2022-12-18T11:38:54;0.50;1.00
15241;DHT22;7723;52.170;9.978;2022-12-18T11:41:27;0.60;1.00
15241;DHT22;7723;52.170;9.978;2022-12-18T11:44:13;0.50;1.00
15241;DHT22;7723;52.170;9.978;2022-12-18T11:46:47;0.50;1.00
15241;DHT22;7723;52.170;9.978;2022-12-18T11:49:17;0.60;1.00
15241;DHT22;7723;52.170;9.978;2022-12-18T11:51:50;0.60;1.00
15241;DHT22;7723;52.170;9.978;2022-12-18T11:54:20;0.70;1.00
15241;DHT22;7723;52.170;9.978;2022-12-18T11:56:50;0.70;1.00
15241;DHT22;7723;52.170;9.978;2022-12-18T11:59:24;0.70;1.00
15241;DHT22;7723;52.170;9.978;2022-12-18T12:01:55;0.60;1.00
15241;DHT22;7723;52.170;9.978;2022-12-18T12:04:47;0.60;1.00
15241;DHT22;7723;52.170;9.978;2022-12-18T12:07:27;0.60;1.00
15241;DHT22;7723;52.170;9.978;2022-12-18T12:10:08;0.40;1.00
15241;DHT22;7723;52.170;9.978;2022-12-18T12:12:48;0.40;1.00
15241;DHT22;7723;52.170;9.978;2022-12-18T12:15:31;0.40;1.00
15241;DHT22;7723;52.170;9.978;2022-12-18T12:18:08;0.40;1.00
15241;DHT22;7723;52.170;9.978;2022-12-18T12:20:47;0.40;1.00
15241;DHT22;7723;52.170;9.978;2022-12-18T12:23:26;0.30;1.00
15241;DHT22;7723;52.170;9.978;2022-12-18T12:25:59;0.20;1.00
15241;DHT22;7723;52.170;9.978;2022-12-18T12:28:42;0.20;1.00
15241;DHT22;7723;52.170;9.978;2022-12-18T12:31:20;0.10;1.00
15241;DHT22;7723;52.170;9.978;2022-12-18T12:33:55;0.10;1.00
15241;DHT22;7723;52.170;9.978;2022-12-18T12:36:33;0.00;1.00
15241;DHT22;7723;52.170;9.978;2022-12-18T12:39:09;-0.10;1.00
15241;DHT22;7723;52.170;9.978;2022-12-18T12:41:39;-0.10;1.00
15241;DHT22;7723;52.170;9.978;2022-12-18T12:44:28;-0.20;1.00
15241;DHT22;7723;52.170;9.978;2022-12-18T12:47:03;-0.30;1.00
15241;DHT22;7723;52.170;9.978;2022-12-18T12:49:33;-0.30;1.00
15241;DHT22;7723;52.170;9.978;2022-12-18T12:52:04;-0.40;1.00
15241;DHT22;7723;52.170;9.978;2022-12-18T12:54:32;-0.40;1.00
15241;DHT22;7723;52.170;9.978;2022-12-18T12:57:04;-0.50;1.00
15241;DHT22;7723;52.170;9.978;2022-12-18T12:59:39;-0.50;1.00
15241;DHT22;7723;52.170;9.978;2022-12-18T13:02:16;-0.60;1.00
15241;DHT22;7723;52.170;9.978;2022-12-18T13:04:49;-0.80;4.10
15241;DHT22;7723;52.170;9.978;2022-12-18T13:07:23;-0.90;11.10
15241;DHT22;7723;52.170;9.978;2022-12-18T13:10:19;-1.00;18.10
15241;DHT22;7723;52.170;9.978;2022-12-18T13:12:54;-1.20;26.00
15241;DHT22;7723;52.170;9.978;2022-12-18T13:15:30;-1.20;32.90
15241;DHT22;7723;52.170;9.978;2022-12-18T13:18:20;-1.30;32.40
15241;DHT22;7723;52.170;9.978;2022-12-18T13:20:50;-1.20;27.90
15241;DHT22;7723;52.170;9.978;2022-12-18T13:23:28;-1.10;21.20
15241;DHT22;7723;52.170;9.978;2022-12-18T13:25:56;-1.10;15.90
15241;DHT22;7723;52.170;9.978;2022-12-18T13:28:51;-1.10;23.60
15241;DHT22;7723;52.170;9.978;2022-12-18T13:34:21;-1.40;28.70
15241;DHT22;7723;52.170;9.978;2022-12-18T13:36:49;-1.50;26.40
15241;DHT22;7723;52.170;9.978;2022-12-18T13:39:26;-1.50;24.80
15241;DHT22;7723;52.170;9.978;2022-12-18T13:45:39;-1.50;24.50
15241;DHT22;7723;52.170;9.978;2022-12-18T13:48:16;-1.50;26.80
15241;DHT22;7723;52.170;9.978;2022-12-18T13:50:49;-1.60;31.40
15241;DHT22;7723;52.170;9.978;2022-12-18T13:53:23;-1.70;28.60
15241;DHT22;7723;52.170;9.978;2022-12-18T13:55:51;-1.70;31.20
15241;DHT22;7723;52.170;9.978;2022-12-18T13:58:18;-1.70;32.10
15241;DHT22;7723;52.170;9.978;2022-12-18T14:00:45;-1.70;29.40
15241;DHT22;7723;52.170;9.978;2022-12-18T14:03:19;-1.60;28.20
15241;DHT22;7723;52.170;9.978;2022-12-18T14:05:53;-1.60;26.40
15241;DHT22;7723;52.170;9.978;2022-12-18T14:08:21;-1.60;23.30
15241;DHT22;7723;52.170;9.978;2022-12-18T14:10:49;-1.60;22.60
15241;DHT22;7723;52.170;9.978;2022-12-18T14:13:24;-1.60;22.00
15241;DHT22;7723;52.170;9.978;2022-12-18T14:15:54;-1.60;21.70
15241;DHT22;7723;52.170;9.978;2022-12-18T14:18:24;-1.70;23.10
15241;DHT22;7723;52.170;9.978;2022-12-18T14:20:55;-1.70;27.00
15241;DHT22;7723;52.170;9.978;2022-12-18T14:23:31;-1.80;30.00
15241;DHT22;7723;52.170;9.978;2022-12-18T14:25:59;-1.80;32.40
15241;DHT22;7723;52.170;9.978;2022-12-18T14:28:27;-1.80;28.90
15241;DHT22;7723;52.170;9.978;2022-12-18T14:30:54;-1.80;30.90
15241;DHT22;7723;52.170;9.978;2022-12-18T14:33:23;-1.80;29.50
15241;DHT22;7723;52.170;9.978;2022-12-18T14:35:57;-1.80;24.70
15241;DHT22;7723;52.170;9.978;2022-12-18T14:38:29;-1.80;25.30
15241;DHT22;7723;52.170;9.978;2022-12-18T14:40:58;-1.90;28.00
15241;DHT22;7723;52.170;9.978;2022-12-18T14:43:26;-2.00;31.80
15241;DHT22;7723;52.170;9.978;2022-12-18T14:45:53;-2.00;28.10
15241;DHT22;7723;52.170;9.978;2022-12-18T14:48:25;-2.00;27.10
15241;DHT22;7723;52.170;9.978;2022-12-18T14:51:02;-2.10;25.90
15241;DHT22;7723;52.170;9.978;2022-12-18T14:53:37;-2.10;25.40
15241;DHT22;7723;52.170;9.978;2022-12-18T14:56:14;-2.10;25.80
15241;DHT22;7723;52.170;9.978;2022-12-18T14:58:45;-2.20;26.70
15241;DHT22;7723;52.170;9.978;2022-12-18T15:01:19;-2.20;27.20
15241;DHT22;7723;52.170;9.978;2022-12-18T15:03:46;-2.20;26.40
15241;DHT22;7723;52.170;9.978;2022-12-18T15:06:26;-2.20;28.00
15241;DHT22;7723;52.170;9.978;2022-12-18T15:08:53;-2.20;27.60
15241;DHT22;7723;52.170;9.978;2022-12-18T15:11:32;-2.30;29.70
15241;DHT22;7723;52.170;9.978;2022-12-18T15:16:42;-2.30;31.10
15241;DHT22;7723;52.170;9.978;2022-12-18T15:19:10;-2.30;32.80
15241;DHT22;7723;52.170;9.978;2022-12-18T15:21:42;-2.30;33.70
15241;DHT22;7723;52.170;9.978;2022-12-18T15:24:16;-2.30;35.40
15241;DHT22;7723;52.170;9.978;2022-12-18T15:26:44;-2.30;38.00
15241;DHT22;7723;52.170;9.978;2022-12-18T15:29:18;-2.40;42.60
15241;DHT22;7723;52.170;9.978;2022-12-18T15:31:58;-2.50;50.40
15241;DHT22;7723;52.170;9.978;2022-12-18T15:34:27;-2.50;54.80
15241;DHT22;7723;52.170;9.978;2022-12-18T15:36:56;-2.50;56.80
15241;DHT22;7723;52.170;9.978;2022-12-18T15:39:24;-2.60;58.90
15241;DHT22;7723;52.170;9.978;2022-12-18T15:41:51;-2.60;60.90
15241;DHT22;7723;52.170;9.978;2022-12-18T15:44:36;-2.60;63.60
15241;DHT22;7723;52.170;9.978;2022-12-18T15:47:04;-2.70;67.80
15241;DHT22;7723;52.170;9.978;2022-12-18T15:49:34;-2.70;72.30
15241;DHT22;7723;52.170;9.978;2022-12-18T15:52:03;-2.80;77.00
15241;DHT22;7723;52.170;9.978;2022-12-18T15:54:30;-2.80;81.80
15241;DHT22;7723;52.170;9.978;2022-12-18T15:57:14;-2.80;85.80
15241;DHT22;7723;52.170;9.978;2022-12-18T15:59:51;-2.90;91.10
15241;DHT22;7723;52.170;9.978;2022-12-18T16:02:20;-3.00;92.80
15241;DHT22;7723;52.170;9.978;2022-12-18T16:04:50;-3.00;95.50
15241;DHT22;7723;52.170;9.978;2022-12-18T16:07:19;-3.10;97.10
15241;DHT22;7723;52.170;9.978;2022-12-18T16:09:46;-3.10;99.40
15241;DHT22;7723;52.170;9.978;2022-12-18T16:12:16;-3.10;99.90
15241;DHT22;7723;52.170;9.978;2022-12-18T16:14:44;-3.10;99.90
15241;DHT22;7723;52.170;9.978;2022-12-18T16:17:12;-3.00;99.90
15241;DHT22;7723;52.170;9.978;2022-12-18T16:19:39;-3.00;99.90
15241;DHT22;7723;52.170;9.978;2022-12-18T16:22:17;-3.00;99.60